createdAt,value
2019-05-23T00:01:41.001Z,87.79
2019-05-23T00:04:18.108Z,88.59
2019-05-23T00:06:45.002Z,88.89
2019-05-23T00:09:12.794Z,88.95
2019-05-23T00:11:54.662Z,89.58
2019-05-23T00:14:36.736Z,90.67
2019-05-23T00:17:05.603Z,90.81
2019-05-23T00:19:33.247Z,91.62
2019-05-23T00:22:00.727Z,91.50
2019-05-23T00:24:27.836Z,92.06
2019-05-23T00:26:56.196Z,92.08
2019-05-23T00:29:24.908Z,91.37
2019-05-23T00:31:58.926Z,91.86
2019-05-23T00:34:26.077Z,92.08
2019-05-23T00:36:53.156Z,91.75
2019-05-23T00:39:19.798Z,91.99
2019-05-23T00:41:48.404Z,91.49
2019-05-23T00:44:15.286Z,91.92
2019-05-23T00:46:43.139Z,92.30
2019-05-23T00:49:12.363Z,93.08
2019-05-23T00:51:39.388Z,92.71
2019-05-23T00:54:06.491Z,92.05
2019-05-23T00:56:35.325Z,92.21
2019-05-23T00:59:02.800Z,92.91
2019-05-23T01:01:31.304Z,91.96
2019-05-23T01:03:58.558Z,92.12
2019-05-23T01:06:25.512Z,92.33
2019-05-23T01:08:52.771Z,92.27
2019-05-23T01:11:20.837Z,93.00
2019-05-23T01:13:48.582Z,92.40
2019-05-23T01:16:15.378Z,92.53
2019-05-23T01:18:42.944Z,93.08
2019-05-23T01:21:30.909Z,92.78
2019-05-23T01:24:02.502Z,93.03
2019-05-23T01:26:29.730Z,93.26
2019-05-23T01:28:56.814Z,93.78
2019-05-23T01:31:28.774Z,93.90
2019-05-23T01:33:56.008Z,93.43
2019-05-23T01:36:23.558Z,93.64
2019-05-23T01:38:50.563Z,93.42
2019-05-23T01:41:18.285Z,94.27
2019-05-23T01:43:45.133Z,94.44
2019-05-23T01:46:13.153Z,94.27
2019-05-23T01:48:41.154Z,94.64
2019-05-23T01:51:09.114Z,94.63
2019-05-23T01:53:36.040Z,94.53
2019-05-23T01:56:02.891Z,94.95
2019-05-23T01:58:29.684Z,94.41
2019-05-23T02:00:57.732Z,94.88
2019-05-23T02:03:25.633Z,94.81
2019-05-23T02:05:52.495Z,94.39
2019-05-23T02:08:19.577Z,96.00
2019-05-23T02:10:46.733Z,95.20
2019-05-23T02:13:13.748Z,95.67
2019-05-23T02:15:41.309Z,94.73
2019-05-23T02:18:08.978Z,95.36
2019-05-23T02:20:36.538Z,94.96
2019-05-23T02:23:04.447Z,95.96
2019-05-23T02:25:32.823Z,95.88
2019-05-23T02:27:59.642Z,96.27
2019-05-23T02:30:34.871Z,96.42
2019-05-23T02:32:57.240Z,96.66
2019-05-23T02:35:24.509Z,97.22
2019-05-23T02:38:09.645Z,97.55
2019-05-23T02:41:02.880Z,97.52
2019-05-23T02:43:32.821Z,97.50
2019-05-23T02:46:02.364Z,96.94
2019-05-23T02:48:33.242Z,97.33
2019-05-23T02:51:04.199Z,97.45
2019-05-23T02:53:34.844Z,98.20
2019-05-23T02:56:07.420Z,98.20
2019-05-23T02:58:55.066Z,97.92
2019-05-23T03:01:45.637Z,98.27
2019-05-23T03:04:17.154Z,98.84
2019-05-23T03:06:44.761Z,98.84
2019-05-23T03:09:11.834Z,99.60
2019-05-23T03:11:39.589Z,98.06
2019-05-23T03:14:08.085Z,98.07
2019-05-23T03:16:35.183Z,98.61
2019-05-23T03:19:06.471Z,99.34
2019-05-23T03:21:35.405Z,99.67
2019-05-23T03:24:03.725Z,99.79
2019-05-23T03:26:57.523Z,99.57
2019-05-23T03:29:24.800Z,100.00
2019-05-23T03:32:10.521Z,100.00
2019-05-23T03:34:39.485Z,99.82
2019-05-23T03:37:07.330Z,99.03
2019-05-23T03:39:34.563Z,99.70
2019-05-23T03:42:10.481Z,100.00
2019-05-23T03:44:38.689Z,100.00
2019-05-23T03:47:07.483Z,100.00
2019-05-23T03:49:34.239Z,100.00
2019-05-23T03:52:01.480Z,100.00
2019-05-23T03:54:29.617Z,100.00
2019-05-23T03:56:56.606Z,100.00
2019-05-23T03:59:24.318Z,100.00
2019-05-23T04:01:52.006Z,100.00
2019-05-23T04:04:19.822Z,100.00
2019-05-23T04:06:48.699Z,100.00
2019-05-23T04:09:15.873Z,100.00
2019-05-23T04:11:43.017Z,100.00
2019-05-23T04:14:09.979Z,100.00
2019-05-23T04:16:36.872Z,100.00
2019-05-23T04:19:04.371Z,100.00
2019-05-23T04:21:31.275Z,100.00
2019-05-23T04:23:58.160Z,100.00
2019-05-23T04:26:25.038Z,100.00
2019-05-23T04:28:51.865Z,100.00
2019-05-23T04:31:19.646Z,100.00
2019-05-23T04:33:46.403Z,100.00
2019-05-23T04:36:13.536Z,100.00
2019-05-23T04:38:41.026Z,100.00
2019-05-23T04:41:08.545Z,100.00
2019-05-23T04:43:35.503Z,100.00
2019-05-23T04:46:02.788Z,100.00
2019-05-23T04:48:30.131Z,100.00
2019-05-23T04:51:00.225Z,100.00
2019-05-23T04:53:26.414Z,100.00
2019-05-23T04:55:53.310Z,100.00
2019-05-23T04:58:20.670Z,100.00
2019-05-23T05:00:48.340Z,100.00
2019-05-23T05:03:18.303Z,100.00
2019-05-23T05:05:44.707Z,100.00
2019-05-23T05:08:11.560Z,100.00
2019-05-23T05:10:39.334Z,100.00
2019-05-23T05:13:06.645Z,100.00
2019-05-23T05:15:33.894Z,100.00
2019-05-23T05:18:00.705Z,100.00
2019-05-23T05:20:28.055Z,100.00
2019-05-23T05:22:55.224Z,100.00
2019-05-23T05:25:22.540Z,100.00
2019-05-23T05:27:49.512Z,100.00
2019-05-23T05:30:16.463Z,99.47
2019-05-23T05:32:45.499Z,98.83
2019-05-23T05:35:12.333Z,97.02
2019-05-23T05:37:39.497Z,96.77
2019-05-23T05:40:07.444Z,96.18
2019-05-23T05:42:35.802Z,95.82
2019-05-23T05:45:04.091Z,96.51
2019-05-23T05:47:31.386Z,95.84
2019-05-23T05:49:58.560Z,94.76
2019-05-23T05:52:25.657Z,93.08
2019-05-23T05:54:52.537Z,93.44
2019-05-23T05:57:19.514Z,91.84
2019-05-23T05:59:46.386Z,90.91
2019-05-23T06:02:14.892Z,91.24
2019-05-23T06:04:47.897Z,91.05
2019-05-23T06:07:24.019Z,90.26
2019-05-23T06:09:52.272Z,89.45
2019-05-23T06:12:20.368Z,88.68
2019-05-23T06:14:47.621Z,89.17
2019-05-23T06:17:16.774Z,88.84
2019-05-23T06:19:43.802Z,87.19
2019-05-23T06:22:11.211Z,89.17
2019-05-23T06:24:46.745Z,87.10
2019-05-23T06:27:09.717Z,86.43
2019-05-23T06:29:37.039Z,85.20
2019-05-23T06:32:06.994Z,84.96
2019-05-23T06:34:34.578Z,83.59
2019-05-23T06:37:01.808Z,83.69
2019-05-23T06:39:28.604Z,82.09
2019-05-23T06:41:55.711Z,82.28
2019-05-23T06:44:23.180Z,82.60
2019-05-23T06:46:50.144Z,82.83
2019-05-23T06:49:17.945Z,81.12
2019-05-23T06:51:44.942Z,78.64
2019-05-23T06:54:12.601Z,78.16
2019-05-23T06:56:40.067Z,79.70
2019-05-23T06:59:07.574Z,78.18
2019-05-23T07:01:34.341Z,77.35
2019-05-23T07:04:01.214Z,74.99
2019-05-23T07:06:28.037Z,76.33
2019-05-23T07:08:55.010Z,73.38
2019-05-23T07:11:22.548Z,73.71
2019-05-23T07:13:50.044Z,74.94
2019-05-23T07:16:16.842Z,73.71
2019-05-23T07:18:44.223Z,72.44
2019-05-23T07:21:11.720Z,73.90
2019-05-23T07:24:19.820Z,74.42
2019-05-23T07:26:46.545Z,72.76
2019-05-23T07:29:13.872Z,73.05
2019-05-23T07:31:40.810Z,72.28
2019-05-23T07:34:07.970Z,70.15
2019-05-23T07:36:34.943Z,69.59
2019-05-23T07:39:06.245Z,68.97
2019-05-23T07:41:33.076Z,67.94
2019-05-23T07:46:33.982Z,67.43
2019-05-23T07:49:01.361Z,68.39
2019-05-23T07:51:29.839Z,67.46
2019-05-23T07:54:15.119Z,68.83
2019-05-23T07:56:42.848Z,66.56
2019-05-23T07:59:10.135Z,67.88
2019-05-23T08:01:39.807Z,65.46
2019-05-23T08:04:20.717Z,63.34
2019-05-23T08:06:36.467Z,63.52
2019-05-23T08:09:06.531Z,65.01
2019-05-23T08:11:33.450Z,64.97
2019-05-23T08:14:01.058Z,63.99
2019-05-23T08:16:27.930Z,61.52
2019-05-23T08:18:54.941Z,61.59
2019-05-23T08:21:21.739Z,61.30
2019-05-23T08:23:48.497Z,61.47
2019-05-23T08:26:19.075Z,62.16
2019-05-23T08:29:11.173Z,60.94
2019-05-23T08:31:14.713Z,61.97
2019-05-23T08:33:41.605Z,62.90
2019-05-23T08:36:09.514Z,59.08
2019-05-23T08:38:36.841Z,57.78
2019-05-23T08:41:05.408Z,57.31
2019-05-23T08:43:33.027Z,61.34
2019-05-23T08:45:59.929Z,56.81
2019-05-23T08:48:27.628Z,55.21
2019-05-23T08:50:54.801Z,54.17
2019-05-23T08:53:22.742Z,53.22
2019-05-23T08:55:50.407Z,51.58
2019-05-23T08:58:17.458Z,57.16
2019-05-23T09:00:44.898Z,51.73
2019-05-23T09:03:12.063Z,55.20
2019-05-23T09:05:39.863Z,55.01
2019-05-23T09:08:08.830Z,52.04
2019-05-23T09:10:37.007Z,52.77
2019-05-23T09:13:03.981Z,49.94
2019-05-23T09:15:31.177Z,49.63
2019-05-23T09:17:58.251Z,49.39
2019-05-23T09:20:25.553Z,50.56
2019-05-23T09:22:52.576Z,51.58
2019-05-23T09:25:19.605Z,49.25
2019-05-23T09:27:46.867Z,49.64
2019-05-23T09:30:14.048Z,48.11
2019-05-23T09:32:41.005Z,44.70
2019-05-23T09:35:20.524Z,46.21
2019-05-23T09:37:37.311Z,46.77
2019-05-23T09:40:04.732Z,47.72
2019-05-23T09:42:31.714Z,47.60
2019-05-23T09:44:58.515Z,46.75
2019-05-23T09:47:25.417Z,43.76
2019-05-23T09:49:54.112Z,44.17
2019-05-23T09:52:23.337Z,44.78
2019-05-23T09:54:50.238Z,43.54
2019-05-23T09:57:17.671Z,44.99
2019-05-23T09:59:44.674Z,42.34
2019-05-23T10:02:12.514Z,44.20
2019-05-23T10:04:39.517Z,42.13
2019-05-23T10:07:06.553Z,42.14
2019-05-23T10:09:33.479Z,43.18
2019-05-23T10:12:00.232Z,41.37
2019-05-23T10:14:30.345Z,42.27
2019-05-23T10:16:57.236Z,40.12
2019-05-23T10:19:24.535Z,39.46
2019-05-23T10:21:51.375Z,39.50
2019-05-23T10:24:18.537Z,37.15
2019-05-23T10:26:45.460Z,36.37
2019-05-23T10:29:12.225Z,41.49
2019-05-23T10:31:38.987Z,36.98
2019-05-23T10:34:05.940Z,36.76
2019-05-23T10:36:32.682Z,34.91
2019-05-23T10:38:59.692Z,36.84
2019-05-23T10:41:26.550Z,40.23
2019-05-23T10:43:53.548Z,36.78
2019-05-23T10:46:20.922Z,36.45
2019-05-23T10:48:47.814Z,39.94
2019-05-23T10:51:14.578Z,34.04
2019-05-23T10:53:41.483Z,33.79
2019-05-23T10:56:08.848Z,35.28
2019-05-23T10:58:35.964Z,33.04
2019-05-23T11:01:03.570Z,31.64
2019-05-23T11:03:31.127Z,32.96
2019-05-23T11:05:58.603Z,32.11
2019-05-23T11:08:29.415Z,30.92
2019-05-23T11:10:54.062Z,31.10
2019-05-23T11:13:21.069Z,35.67
2019-05-23T11:15:49.435Z,32.52
2019-05-23T11:18:16.573Z,32.19
2019-05-23T11:20:43.445Z,37.95
2019-05-23T11:23:12.044Z,32.58
2019-05-23T11:25:39.217Z,31.57
2019-05-23T11:28:06.234Z,33.01
2019-05-23T11:30:47.226Z,31.46
2019-05-23T11:33:14.241Z,31.83
2019-05-23T11:35:41.309Z,31.88
2019-05-23T11:38:08.110Z,31.95
2019-05-23T11:40:35.088Z,30.10
2019-05-23T11:43:02.019Z,32.66
2019-05-23T11:45:32.615Z,30.35
2019-05-23T11:47:59.749Z,29.62
2019-05-23T11:50:26.573Z,30.34
2019-05-23T11:52:55.994Z,29.82
2019-05-23T11:55:22.268Z,31.41
2019-05-23T11:57:49.141Z,28.40
2019-05-23T12:00:21.010Z,27.74
2019-05-23T12:02:48.219Z,28.26
2019-05-23T12:05:19.774Z,27.79
2019-05-23T12:07:46.840Z,27.50
2019-05-23T12:10:14.602Z,30.57
2019-05-23T12:12:41.855Z,30.53
2019-05-23T12:15:14.446Z,31.65
2019-05-23T12:17:41.837Z,31.83
2019-05-23T12:20:09.271Z,33.19
2019-05-23T12:22:36.738Z,33.39
2019-05-23T12:25:20.771Z,35.41
2019-05-23T12:27:34.985Z,35.47
2019-05-23T12:30:04.897Z,34.80
2019-05-23T12:32:32.171Z,35.82
2019-05-23T12:35:10.350Z,37.45
2019-05-23T12:37:27.911Z,38.36
2019-05-23T12:39:55.335Z,39.56
2019-05-23T12:42:22.227Z,39.58
2019-05-23T12:44:49.005Z,38.50
2019-05-23T12:47:41.629Z,40.06
2019-05-23T12:50:12.612Z,41.63
2019-05-23T12:52:39.478Z,40.04
2019-05-23T12:55:06.789Z,42.23
2019-05-23T12:57:33.730Z,37.15
2019-05-23T13:00:00.571Z,38.06
2019-05-23T13:02:27.634Z,39.54
2019-05-23T13:04:54.434Z,40.47
2019-05-23T13:07:35.098Z,39.78
2019-05-23T13:09:50.607Z,40.60
2019-05-23T13:12:17.539Z,42.78
2019-05-23T13:14:44.817Z,41.19
2019-05-23T13:17:11.768Z,39.61
2019-05-23T13:19:39.279Z,40.98
2019-05-23T13:22:07.873Z,38.34
2019-05-23T13:24:52.216Z,38.35
2019-05-23T13:27:08.813Z,38.84
2019-05-23T13:29:35.571Z,38.44
2019-05-23T13:32:03.097Z,37.45
2019-05-23T13:34:30.140Z,37.86
2019-05-23T13:36:57.130Z,37.61
2019-05-23T13:39:25.117Z,37.89
2019-05-23T13:41:51.863Z,36.14
2019-05-23T13:44:32.577Z,37.34
2019-05-23T13:46:47.460Z,36.26
2019-05-23T13:49:17.112Z,38.45
2019-05-23T13:51:43.986Z,38.94
2019-05-23T13:54:11.161Z,35.80
2019-05-23T13:56:38.061Z,36.68
2019-05-23T13:59:05.639Z,38.04
2019-05-23T14:01:32.401Z,36.87
2019-05-23T14:03:59.344Z,36.25
2019-05-23T14:06:26.253Z,34.02
2019-05-23T14:08:56.800Z,35.67
2019-05-23T14:11:23.594Z,36.55
2019-05-23T14:13:59.457Z,33.98
2019-05-23T14:16:20.660Z,35.19
2019-05-23T14:18:47.981Z,35.17
2019-05-23T14:21:15.177Z,35.64
2019-05-23T14:23:42.930Z,32.98
2019-05-23T14:26:10.690Z,32.73
2019-05-23T14:28:37.791Z,34.56
2019-05-23T14:31:12.677Z,38.56
2019-05-23T14:34:05.644Z,31.88
2019-05-23T14:36:50.550Z,35.20
2019-05-23T14:39:25.016Z,32.74
2019-05-23T14:42:00.678Z,33.95
2019-05-23T14:44:27.519Z,33.04
2019-05-23T14:47:12.764Z,35.95
2019-05-23T14:49:44.677Z,32.45
2019-05-23T14:52:16.781Z,34.80
2019-05-23T14:54:46.369Z,34.14
2019-05-23T14:57:13.706Z,38.40
2019-05-23T14:59:40.904Z,33.49
2019-05-23T15:02:12.810Z,31.45
2019-05-23T15:04:39.760Z,31.76
2019-05-23T15:07:06.615Z,28.56
2019-05-23T15:09:34.345Z,31.17
2019-05-23T15:12:01.199Z,27.28
2019-05-23T15:14:28.085Z,25.41
2019-05-23T15:16:54.817Z,24.14
2019-05-23T15:19:39.103Z,24.32
2019-05-23T15:21:50.346Z,23.37
2019-05-23T15:24:17.262Z,21.35
2019-05-23T15:26:44.601Z,21.92
2019-05-23T15:29:11.629Z,23.85
2019-05-23T15:31:38.606Z,27.75
2019-05-23T15:34:05.556Z,27.53
2019-05-23T15:36:32.545Z,27.52
2019-05-23T15:39:09.602Z,28.67
2019-05-23T15:41:28.482Z,30.28
2019-05-23T15:43:55.288Z,29.30
2019-05-23T15:46:22.169Z,28.68
2019-05-23T15:48:49.509Z,30.64
2019-05-23T15:51:21.677Z,33.15
2019-05-23T15:54:03.835Z,33.38
2019-05-23T15:56:59.233Z,33.79
2019-05-23T15:59:30.148Z,32.17
2019-05-23T16:02:01.846Z,34.26
2019-05-23T16:04:28.698Z,32.58
2019-05-23T16:06:56.186Z,32.01
2019-05-23T16:09:30.007Z,31.62
2019-05-23T16:11:52.188Z,33.76
2019-05-23T16:14:19.212Z,33.85
2019-05-23T16:16:46.216Z,34.51
2019-05-23T16:19:13.135Z,33.20
2019-05-23T16:21:40.104Z,36.20
2019-05-23T16:24:07.169Z,37.15
2019-05-23T16:26:34.964Z,33.12
2019-05-23T16:29:01.734Z,39.73
2019-05-23T16:31:28.663Z,33.34
2019-05-23T16:33:55.439Z,36.20
2019-05-23T16:36:22.479Z,34.88
2019-05-23T16:38:49.388Z,39.64
2019-05-23T16:41:16.232Z,35.58
2019-05-23T16:43:42.976Z,35.44
2019-05-23T16:46:09.776Z,35.32
2019-05-23T16:48:37.131Z,36.34
2019-05-23T16:51:04.367Z,37.12
2019-05-23T16:53:35.685Z,39.79
2019-05-23T16:56:17.302Z,40.51
2019-05-23T16:59:03.305Z,36.56
2019-05-23T17:01:55.542Z,37.64
2019-05-23T17:04:27.800Z,38.21
2019-05-23T17:07:08.567Z,38.85
2019-05-23T17:09:44.483Z,43.26
2019-05-23T17:12:29.510Z,47.30
2019-05-23T17:15:04.684Z,39.22
2019-05-23T17:18:03.025Z,39.50
2019-05-23T17:20:43.535Z,39.32
2019-05-23T17:23:28.433Z,39.45
2019-05-23T17:26:15.010Z,40.59
2019-05-23T17:28:45.005Z,41.32
2019-05-23T17:31:14.096Z,47.83
2019-05-23T17:33:44.948Z,44.49
2019-05-23T17:36:12.112Z,47.28
2019-05-23T17:38:39.160Z,44.61
2019-05-23T17:41:05.923Z,45.14
2019-05-23T17:43:33.164Z,46.31
2019-05-23T17:45:59.990Z,48.56
2019-05-23T17:48:26.832Z,44.67
2019-05-23T17:50:53.746Z,45.79
2019-05-23T17:53:21.007Z,54.06
2019-05-23T17:55:47.931Z,59.10
2019-05-23T17:58:15.723Z,60.98
2019-05-23T18:00:45.116Z,60.87
2019-05-23T18:03:12.078Z,60.41
2019-05-23T18:05:39.280Z,57.66
2019-05-23T18:08:07.479Z,60.70
2019-05-23T18:10:44.489Z,58.79
2019-05-23T18:13:04.020Z,60.21
2019-05-23T18:15:31.005Z,62.54
2019-05-23T18:17:58.990Z,59.96
2019-05-23T18:20:27.779Z,63.93
2019-05-23T18:22:54.687Z,66.08
2019-05-23T18:25:21.805Z,66.79
2019-05-23T18:27:48.561Z,66.46
2019-05-23T18:30:31.120Z,67.44
2019-05-23T18:32:58.341Z,70.58
2019-05-23T18:35:25.705Z,70.13
2019-05-23T18:37:52.978Z,71.30
2019-05-23T18:40:22.606Z,71.61
2019-05-23T18:42:50.047Z,71.69
2019-05-23T18:45:18.844Z,72.66
2019-05-23T18:47:46.083Z,74.13
2019-05-23T18:50:13.048Z,74.74
2019-05-23T18:52:40.238Z,76.08
2019-05-23T18:55:07.023Z,76.37
2019-05-23T18:57:35.328Z,77.29
2019-05-23T19:00:02.723Z,76.71
2019-05-23T19:02:30.580Z,77.74
2019-05-23T19:04:59.075Z,79.21
2019-05-23T19:07:26.349Z,80.33
2019-05-23T19:09:53.247Z,81.88
2019-05-23T19:12:20.774Z,82.80
2019-05-23T19:14:48.025Z,82.53
2019-05-23T19:17:14.779Z,82.27
2019-05-23T19:19:42.098Z,83.61
2019-05-23T19:22:09.067Z,83.59
2019-05-23T19:24:36.866Z,83.68
2019-05-23T19:27:05.328Z,85.13
2019-05-23T19:29:32.885Z,85.49
2019-05-23T19:32:03.801Z,85.90
2019-05-23T19:34:30.762Z,85.67
2019-05-23T19:37:09.007Z,85.51
2019-05-23T19:39:36.497Z,83.01
2019-05-23T19:42:03.408Z,85.44
2019-05-23T19:44:35.487Z,86.66
2019-05-23T19:47:02.505Z,87.64
2019-05-23T19:49:29.717Z,87.53
2019-05-23T19:51:57.428Z,87.61
2019-05-23T19:54:24.491Z,88.78
2019-05-23T19:56:53.799Z,89.71
2019-05-23T19:59:21.026Z,90.56
2019-05-23T20:02:07.902Z,91.33
2019-05-23T20:04:37.499Z,90.46
2019-05-23T20:07:06.394Z,91.89
2019-05-23T20:09:33.187Z,92.78
2019-05-23T20:12:00.246Z,92.59
2019-05-23T20:14:27.298Z,92.72
2019-05-23T20:16:54.381Z,93.28
2019-05-23T20:19:21.258Z,92.58
2019-05-23T20:21:48.388Z,92.33
2019-05-23T20:24:15.237Z,92.82
2019-05-23T20:26:42.847Z,93.37
2019-05-23T20:29:09.844Z,93.63
2019-05-23T20:31:36.640Z,93.61
2019-05-23T20:34:06.815Z,93.54
2019-05-23T20:36:32.702Z,93.99
2019-05-23T20:38:59.698Z,93.30
2019-05-23T20:41:26.745Z,93.49
2019-05-23T20:43:53.603Z,94.21
2019-05-23T20:46:20.704Z,94.55
2019-05-23T20:48:47.751Z,94.85
2019-05-23T20:51:15.023Z,95.37
2019-05-23T20:53:42.377Z,95.48
2019-05-23T20:56:09.123Z,95.52
2019-05-23T20:58:35.947Z,95.22
2019-05-23T21:01:10.571Z,93.90
2019-05-23T21:03:37.807Z,93.93
2019-05-23T21:06:04.884Z,94.95
2019-05-23T21:08:31.707Z,94.16
2019-05-23T21:10:58.559Z,94.14
2019-05-23T21:13:25.540Z,95.16
2019-05-23T21:15:52.465Z,94.66
2019-05-23T21:18:19.251Z,95.16
2019-05-23T21:20:46.009Z,95.89
2019-05-23T21:23:12.817Z,96.53
2019-05-23T21:25:42.868Z,97.39
2019-05-23T21:28:09.648Z,98.08
2019-05-23T21:30:36.489Z,98.59
2019-05-23T21:33:03.581Z,98.42
2019-05-23T21:35:30.414Z,98.52
2019-05-23T21:37:57.590Z,98.26
2019-05-23T21:40:44.002Z,98.38
2019-05-23T21:43:10.977Z,98.91
2019-05-23T21:45:37.858Z,99.16
2019-05-23T21:48:05.060Z,99.32
2019-05-23T21:50:32.036Z,99.53
2019-05-23T21:52:58.822Z,100.00
2019-05-23T21:55:36.497Z,100.00
2019-05-23T21:58:03.642Z,100.00
2019-05-23T22:01:43.730Z,100.00
2019-05-23T22:04:16.099Z,100.00
2019-05-23T22:06:46.113Z,100.00
2019-05-23T22:09:13.539Z,100.00
2019-05-23T22:11:40.573Z,100.00
2019-05-23T22:14:07.979Z,100.00
2019-05-23T22:16:34.884Z,100.00
2019-05-23T22:19:02.155Z,100.00
2019-05-23T22:21:28.975Z,100.00
2019-05-23T22:23:55.924Z,100.00
2019-05-23T22:26:22.726Z,100.00
2019-05-23T22:28:49.565Z,100.00
2019-05-23T22:31:16.739Z,100.00
2019-05-23T22:33:47.896Z,100.00
2019-05-23T22:36:14.682Z,100.00
2019-05-23T22:38:41.568Z,100.00
2019-05-23T22:41:08.695Z,100.00
2019-05-23T22:43:36.211Z,100.00
2019-05-23T22:46:03.068Z,100.00
2019-05-23T22:48:30.229Z,100.00
2019-05-23T22:50:57.107Z,100.00
2019-05-23T22:53:24.048Z,100.00
2019-05-23T22:55:50.790Z,100.00
2019-05-23T22:58:17.667Z,100.00
2019-05-23T23:00:46.382Z,100.00
2019-05-23T23:03:13.233Z,100.00
2019-05-23T23:05:39.984Z,100.00
2019-05-23T23:08:06.947Z,100.00
2019-05-23T23:10:33.704Z,100.00
2019-05-23T23:13:00.677Z,100.00
2019-05-23T23:15:28.892Z,100.00
2019-05-23T23:17:55.902Z,100.00
2019-05-23T23:20:22.795Z,100.00
2019-05-23T23:22:49.610Z,100.00
2019-05-23T23:25:16.498Z,100.00
2019-05-23T23:27:43.401Z,100.00
2019-05-23T23:30:12.215Z,100.00
2019-05-23T23:32:39.204Z,100.00
2019-05-23T23:35:06.376Z,100.00
2019-05-23T23:37:33.186Z,100.00
2019-05-23T23:40:00.266Z,100.00
2019-05-23T23:42:28.453Z,100.00
2019-05-23T23:45:13.529Z,100.00
2019-05-23T23:47:58.805Z,100.00
2019-05-23T23:50:43.735Z,100.00
2019-05-23T23:53:28.846Z,100.00
2019-05-23T23:56:14.126Z,100.00
2019-05-23T23:58:40.851Z,100.00
